sensor_id;sensor_type;location;lat;lon;timestamp;temperature;humidity
8736;DHT22;4404;49.308;12.178;2023-05-02T07:10:30;8.80;99.90
8736;DHT22;4404;49.308;12.178;2023-05-02T07:12:32;8.90;99.90
8736;DHT22;4404;49.308;12.178;2023-05-02T07:14:34;9.10;99.90
8736;DHT22;4404;49.308;12.178;2023-05-02T08:04:32;11.50;99.90
8736;DHT22;4404;49.308;12.178;2023-05-02T08:06:43;11.60;99.90
8736;DHT22;4404;49.308;12.178;2023-05-02T08:08:49;11.50;99.90
8736;DHT22;4404;49.308;12.178;2023-05-02T08:10:54;11.60;99.90
8736;DHT22;4404;49.308;12.178;2023-05-02T08:12:57;11.70;99.90
8736;DHT22;4404;49.308;12.178;2023-05-02T08:15:04;11.80;99.90
8736;DHT22;4404;49.308;12.178;2023-05-02T08:17:07;12.00;99.90
8736;DHT22;4404;49.308;12.178;2023-05-02T08:19:14;12.20;99.90
8736;DHT22;4404;49.308;12.178;2023-05-02T08:21:23;12.30;99.90
8736;DHT22;4404;49.308;12.178;2023-05-02T08:23:27;12.40;99.90
8736;DHT22;4404;49.308;12.178;2023-05-02T08:25:30;12.30;99.90
8736;DHT22;4404;49.308;12.178;2023-05-02T08:27:33;12.30;99.90
8736;DHT22;4404;49.308;12.178;2023-05-02T08:29:35;12.40;99.90
8736;DHT22;4404;49.308;12.178;2023-05-02T08:31:37;12.50;99.90
8736;DHT22;4404;49.308;12.178;2023-05-02T08:33:40;12.50;99.90
8736;DHT22;4404;49.308;12.178;2023-05-02T08:35:45;12.50;99.90
8736;DHT22;4404;49.308;12.178;2023-05-02T08:37:55;12.60;99.90
8736;DHT22;4404;49.308;12.178;2023-05-02T08:39:59;12.60;99.90
8736;DHT22;4404;49.308;12.178;2023-05-02T08:42:07;12.60;99.90
8736;DHT22;4404;49.308;12.178;2023-05-02T08:44:11;12.60;99.90
8736;DHT22;4404;49.308;12.178;2023-05-02T08:46:19;12.80;99.90
8736;DHT22;4404;49.308;12.178;2023-05-02T08:48:23;12.90;99.90
8736;DHT22;4404;49.308;12.178;2023-05-02T08:50:27;12.90;99.90
8736;DHT22;4404;49.308;12.178;2023-05-02T08:52:31;13.00;99.90
8736;DHT22;4404;49.308;12.178;2023-05-02T08:54:37;13.10;99.90
8736;DHT22;4404;49.308;12.178;2023-05-02T08:56:41;13.20;99.90
8736;DHT22;4404;49.308;12.178;2023-05-02T08:58:44;13.30;99.90
8736;DHT22;4404;49.308;12.178;2023-05-02T09:00:49;13.40;99.90
8736;DHT22;4404;49.308;12.178;2023-05-02T09:03:02;13.50;99.90
8736;DHT22;4404;49.308;12.178;2023-05-02T09:05:10;13.60;99.90
8736;DHT22;4404;49.308;12.178;2023-05-02T09:07:13;13.70;99.90
8736;DHT22;4404;49.308;12.178;2023-05-02T09:09:17;13.70;99.90
8736;DHT22;4404;49.308;12.178;2023-05-02T09:11:21;13.80;99.90
8736;DHT22;4404;49.308;12.178;2023-05-02T09:13:34;13.80;99.90
8736;DHT22;4404;49.308;12.178;2023-05-02T09:15:37;13.90;99.90
8736;DHT22;4404;49.308;12.178;2023-05-02T09:17:45;13.90;99.90
8736;DHT22;4404;49.308;12.178;2023-05-02T09:19:59;13.80;99.90
8736;DHT22;4404;49.308;12.178;2023-05-02T09:22:09;13.90;99.90
8736;DHT22;4404;49.308;12.178;2023-05-02T09:24:15;13.90;99.90
8736;DHT22;4404;49.308;12.178;2023-05-02T09:26:26;13.90;99.90
8736;DHT22;4404;49.308;12.178;2023-05-02T09:28:38;14.00;99.90
8736;DHT22;4404;49.308;12.178;2023-05-02T09:30:43;14.00;99.90
8736;DHT22;4404;49.308;12.178;2023-05-02T09:32:50;14.00;99.90
8736;DHT22;4404;49.308;12.178;2023-05-02T09:35:06;14.00;99.90
8736;DHT22;4404;49.308;12.178;2023-05-02T09:37:33;14.00;99.90
8736;DHT22;4404;49.308;12.178;2023-05-02T09:39:36;14.00;99.90
8736;DHT22;4404;49.308;12.178;2023-05-02T09:41:43;14.00;99.90
8736;DHT22;4404;49.308;12.178;2023-05-02T09:43:54;14.00;99.90
8736;DHT22;4404;49.308;12.178;2023-05-02T09:45:59;14.00;99.90
8736;DHT22;4404;49.308;12.178;2023-05-02T09:48:02;14.00;99.90
8736;DHT22;4404;49.308;12.178;2023-05-02T09:50:06;13.90;99.90
8736;DHT22;4404;49.308;12.178;2023-05-02T09:52:13;13.90;99.90
8736;DHT22;4404;49.308;12.178;2023-05-02T09:54:35;13.70;99.90
8736;DHT22;4404;49.308;12.178;2023-05-02T09:56:55;13.70;99.90
8736;DHT22;4404;49.308;12.178;2023-05-02T09:59:12;13.80;99.90
8736;DHT22;4404;49.308;12.178;2023-05-02T10:01:19;13.90;99.90
8736;DHT22;4404;49.308;12.178;2023-05-02T10:03:25;13.90;99.90
8736;DHT22;4404;49.308;12.178;2023-05-02T10:05:28;13.90;99.90
8736;DHT22;4404;49.308;12.178;2023-05-02T10:07:34;13.90;99.90
8736;DHT22;4404;49.308;12.178;2023-05-02T10:09:43;13.90;99.90
8736;DHT22;4404;49.308;12.178;2023-05-02T10:11:51;13.90;99.90
8736;DHT22;4404;49.308;12.178;2023-05-02T10:13:58;13.90;99.90
8736;DHT22;4404;49.308;12.178;2023-05-02T10:16:06;13.90;99.90
8736;DHT22;4404;49.308;12.178;2023-05-02T10:18:13;14.00;99.90
8736;DHT22;4404;49.308;12.178;2023-05-02T10:20:30;14.00;99.90
8736;DHT22;4404;49.308;12.178;2023-05-02T10:22:39;14.00;99.90
8736;DHT22;4404;49.308;12.178;2023-05-02T10:24:48;14.00;99.90
8736;DHT22;4404;49.308;12.178;2023-05-02T10:26:52;14.00;99.90
8736;DHT22;4404;49.308;12.178;2023-05-02T10:29:00;14.00;99.90
8736;DHT22;4404;49.308;12.178;2023-05-02T10:31:05;14.00;99.90
8736;DHT22;4404;49.308;12.178;2023-05-02T10:33:13;14.10;99.90
8736;DHT22;4404;49.308;12.178;2023-05-02T10:35:17;14.00;99.90
8736;DHT22;4404;49.308;12.178;2023-05-02T10:37:22;14.00;99.90
8736;DHT22;4404;49.308;12.178;2023-05-02T10:39:27;14.00;99.90
8736;DHT22;4404;49.308;12.178;2023-05-02T10:41:34;13.90;99.90
8736;DHT22;4404;49.308;12.178;2023-05-02T10:43:45;14.00;99.90
8736;DHT22;4404;49.308;12.178;2023-05-02T10:45:52;14.00;99.90
8736;DHT22;4404;49.308;12.178;2023-05-02T10:48:16;13.90;99.90
8736;DHT22;4404;49.308;12.178;2023-05-02T10:50:20;13.90;99.90
8736;DHT22;4404;49.308;12.178;2023-05-02T10:52:25;14.00;99.90
8736;DHT22;4404;49.308;12.178;2023-05-02T10:54:33;14.00;99.90
8736;DHT22;4404;49.308;12.178;2023-05-02T10:57:02;14.00;99.90
8736;DHT22;4404;49.308;12.178;2023-05-02T10:59:26;13.90;99.90
8736;DHT22;4404;49.308;12.178;2023-05-02T11:01:51;13.70;99.90
8736;DHT22;4404;49.308;12.178;2023-05-02T11:03:58;13.70;99.90
8736;DHT22;4404;49.308;12.178;2023-05-02T11:06:11;13.90;99.90
8736;DHT22;4404;49.308;12.178;2023-05-02T11:08:39;13.90;99.90
8736;DHT22;4404;49.308;12.178;2023-05-02T11:10:59;13.90;99.90
8736;DHT22;4404;49.308;12.178;2023-05-02T11:14:03;14.00;99.90
8736;DHT22;4404;49.308;12.178;2023-05-02T11:16:22;14.00;99.90
8736;DHT22;4404;49.308;12.178;2023-05-02T11:19:04;14.00;99.90
8736;DHT22;4404;49.308;12.178;2023-05-02T11:21:28;14.10;99.90
8736;DHT22;4404;49.308;12.178;2023-05-02T11:23:43;14.10;99.90
8736;DHT22;4404;49.308;12.178;2023-05-02T11:26:21;14.20;99.90
8736;DHT22;4404;49.308;12.178;2023-05-02T11:28:53;14.20;99.90
8736;DHT22;4404;49.308;12.178;2023-05-02T11:31:07;14.10;99.90
8736;DHT22;4404;49.308;12.178;2023-05-02T11:33:58;14.20;99.90
8736;DHT22;4404;49.308;12.178;2023-05-02T11:36:28;14.40;99.90
8736;DHT22;4404;49.308;12.178;2023-05-02T11:38:42;14.50;99.90
8736;DHT22;4404;49.308;12.178;2023-05-02T11:40:58;14.50;99.90
8736;DHT22;4404;49.308;12.178;2023-05-02T11:43:15;14.60;99.90
8736;DHT22;4404;49.308;12.178;2023-05-02T11:45:33;14.60;99.90
8736;DHT22;4404;49.308;12.178;2023-05-02T11:47:46;14.80;99.90
8736;DHT22;4404;49.308;12.178;2023-05-02T11:49:51;15.00;99.90
8736;DHT22;4404;49.308;12.178;2023-05-02T11:51:53;15.10;99.90
8736;DHT22;4404;49.308;12.178;2023-05-02T11:53:57;15.20;99.90
8736;DHT22;4404;49.308;12.178;2023-05-02T11:56:01;15.30;99.90
8736;DHT22;4404;49.308;12.178;2023-05-02T11:58:04;15.40;99.90
8736;DHT22;4404;49.308;12.178;2023-05-02T12:00:14;15.60;99.90
8736;DHT22;4404;49.308;12.178;2023-05-02T12:02:24;15.80;99.90
8736;DHT22;4404;49.308;12.178;2023-05-02T12:04:42;16.00;99.90
8736;DHT22;4404;49.308;12.178;2023-05-02T12:06:55;16.30;99.90
8736;DHT22;4404;49.308;12.178;2023-05-02T12:09:06;16.50;99.90
8736;DHT22;4404;49.308;12.178;2023-05-02T12:11:12;16.60;99.90
8736;DHT22;4404;49.308;12.178;2023-05-02T12:13:14;16.70;99.90
8736;DHT22;4404;49.308;12.178;2023-05-02T12:15:17;16.80;99.90
8736;DHT22;4404;49.308;12.178;2023-05-02T12:17:20;16.90;99.90
8736;DHT22;4404;49.308;12.178;2023-05-02T12:19:22;17.00;99.90
8736;DHT22;4404;49.308;12.178;2023-05-02T12:21:24;17.10;99.90
8736;DHT22;4404;49.308;12.178;2023-05-02T12:23:29;17.10;99.90
8736;DHT22;4404;49.308;12.178;2023-05-02T12:25:31;17.10;99.90
8736;DHT22;4404;49.308;12.178;2023-05-02T12:27:37;17.10;99.90
8736;DHT22;4404;49.308;12.178;2023-05-02T12:29:41;17.20;99.90
8736;DHT22;4404;49.308;12.178;2023-05-02T12:31:50;17.30;99.90
8736;DHT22;4404;49.308;12.178;2023-05-02T12:33:55;17.30;99.90
8736;DHT22;4404;49.308;12.178;2023-05-02T12:36:05;17.30;99.90
8736;DHT22;4404;49.308;12.178;2023-05-02T12:38:13;17.40;99.90
8736;DHT22;4404;49.308;12.178;2023-05-02T12:40:18;17.40;99.90
8736;DHT22;4404;49.308;12.178;2023-05-02T12:42:22;17.40;99.90
8736;DHT22;4404;49.308;12.178;2023-05-02T12:44:35;17.40;99.90
8736;DHT22;4404;49.308;12.178;2023-05-02T12:46:57;17.30;99.90
8736;DHT22;4404;49.308;12.178;2023-05-02T12:49:04;17.30;99.90
8736;DHT22;4404;49.308;12.178;2023-05-02T12:51:20;17.30;99.90
8736;DHT22;4404;49.308;12.178;2023-05-02T12:53:37;17.20;99.90
8736;DHT22;4404;49.308;12.178;2023-05-02T12:55:42;17.40;99.90
8736;DHT22;4404;49.308;12.178;2023-05-02T12:57:46;17.40;99.90
8736;DHT22;4404;49.308;12.178;2023-05-02T12:59:50;17.40;99.90
8736;DHT22;4404;49.308;12.178;2023-05-02T13:01:54;17.40;99.90
8736;DHT22;4404;49.308;12.178;2023-05-02T13:03:57;17.40;99.90
8736;DHT22;4404;49.308;12.178;2023-05-02T13:06:00;17.40;99.90
8736;DHT22;4404;49.308;12.178;2023-05-02T13:08:07;17.60;99.90
8736;DHT22;4404;49.308;12.178;2023-05-02T13:10:09;17.70;99.90
8736;DHT22;4404;49.308;12.178;2023-05-02T13:12:13;17.70;99.90
8736;DHT22;4404;49.308;12.178;2023-05-02T13:14:15;17.80;99.90
8736;DHT22;4404;49.308;12.178;2023-05-02T13:16:17;17.70;99.90
8736;DHT22;4404;49.308;12.178;2023-05-02T13:18:19;17.60;99.90
8736;DHT22;4404;49.308;12.178;2023-05-02T13:20:21;17.70;99.90
8736;DHT22;4404;49.308;12.178;2023-05-02T13:22:23;17.70;99.90
8736;DHT22;4404;49.308;12.178;2023-05-02T13:24:25;17.70;99.90
8736;DHT22;4404;49.308;12.178;2023-05-02T13:26:27;17.80;99.90
8736;DHT22;4404;49.308;12.178;2023-05-02T13:28:31;17.90;99.90
8736;DHT22;4404;49.308;12.178;2023-05-02T13:30:37;17.90;99.90
8736;DHT22;4404;49.308;12.178;2023-05-02T13:32:42;17.80;99.90
8736;DHT22;4404;49.308;12.178;2023-05-02T13:34:46;17.80;99.90
8736;DHT22;4404;49.308;12.178;2023-05-02T13:36:50;17.90;99.90
8736;DHT22;4404;49.308;12.178;2023-05-02T13:38:53;18.00;99.90
8736;DHT22;4404;49.308;12.178;2023-05-02T13:40:58;18.20;99.90
8736;DHT22;4404;49.308;12.178;2023-05-02T13:43:03;18.50;99.90
8736;DHT22;4404;49.308;12.178;2023-05-02T13:45:14;18.60;99.90
8736;DHT22;4404;49.308;12.178;2023-05-02T13:47:17;18.70;99.90
8736;DHT22;4404;49.308;12.178;2023-05-02T13:49:22;18.80;99.90
8736;DHT22;4404;49.308;12.178;2023-05-02T13:51:28;18.90;99.90
8736;DHT22;4404;49.308;12.178;2023-05-02T13:53:34;19.00;99.90
8736;DHT22;4404;49.308;12.178;2023-05-02T13:55:41;19.20;99.90
8736;DHT22;4404;49.308;12.178;2023-05-02T13:57:46;19.20;99.90
8736;DHT22;4404;49.308;12.178;2023-05-02T13:59:49;19.30;99.90
8736;DHT22;4404;49.308;12.178;2023-05-02T14:01:53;19.40;99.90
8736;DHT22;4404;49.308;12.178;2023-05-02T14:03:56;19.50;99.90
8736;DHT22;4404;49.308;12.178;2023-05-02T14:06:00;19.60;99.90
8736;DHT22;4404;49.308;12.178;2023-05-02T14:08:03;19.60;99.90
8736;DHT22;4404;49.308;12.178;2023-05-02T14:10:10;19.80;99.90
8736;DHT22;4404;49.308;12.178;2023-05-02T14:12:13;19.80;99.90
8736;DHT22;4404;49.308;12.178;2023-05-02T14:14:20;19.90;99.90
8736;DHT22;4404;49.308;12.178;2023-05-02T14:16:22;19.90;99.90
8736;DHT22;4404;49.308;12.178;2023-05-02T14:18:25;20.10;99.90
8736;DHT22;4404;49.308;12.178;2023-05-02T14:20:30;20.10;99.90
8736;DHT22;4404;49.308;12.178;2023-05-02T14:22:34;20.10;99.60
8736;DHT22;4404;49.308;12.178;2023-05-02T14:24:36;20.10;99.90
8736;DHT22;4404;49.308;12.178;2023-05-02T14:26:39;20.20;99.90
8736;DHT22;4404;49.308;12.178;2023-05-02T14:28:43;20.30;99.90
8736;DHT22;4404;49.308;12.178;2023-05-02T14:30:49;20.30;99.30
8736;DHT22;4404;49.308;12.178;2023-05-02T14:33:11;20.20;98.20
8736;DHT22;4404;49.308;12.178;2023-05-02T14:35:34;20.10;96.30
8736;DHT22;4404;49.308;12.178;2023-05-02T14:37:38;19.90;97.30
8736;DHT22;4404;49.308;12.178;2023-05-02T14:39:43;19.80;97.80
8736;DHT22;4404;49.308;12.178;2023-05-02T14:41:47;19.70;98.40
8736;DHT22;4404;49.308;12.178;2023-05-02T14:43:53;19.60;98.50
8736;DHT22;4404;49.308;12.178;2023-05-02T14:46:01;19.40;99.00
8736;DHT22;4404;49.308;12.178;2023-05-02T14:48:27;19.20;99.60
8736;DHT22;4404;49.308;12.178;2023-05-02T14:50:49;18.90;99.90
8736;DHT22;4404;49.308;12.178;2023-05-02T14:53:06;18.70;99.90
8736;DHT22;4404;49.308;12.178;2023-05-02T14:55:10;18.50;99.90
8736;DHT22;4404;49.308;12.178;2023-05-02T14:57:12;18.40;99.90
8736;DHT22;4404;49.308;12.178;2023-05-02T14:59:17;18.30;99.90
8736;DHT22;4404;49.308;12.178;2023-05-02T15:01:21;18.10;99.90
8736;DHT22;4404;49.308;12.178;2023-05-02T15:03:24;18.00;99.90
8736;DHT22;4404;49.308;12.178;2023-05-02T15:05:34;17.80;99.90
8736;DHT22;4404;49.308;12.178;2023-05-02T15:07:50;17.60;99.90
8736;DHT22;4404;49.308;12.178;2023-05-02T15:09:57;17.60;99.90
8736;DHT22;4404;49.308;12.178;2023-05-02T15:12:01;17.40;99.90
8736;DHT22;4404;49.308;12.178;2023-05-02T15:14:04;17.10;99.90
8736;DHT22;4404;49.308;12.178;2023-05-02T15:16:08;17.00;99.90
8736;DHT22;4404;49.308;12.178;2023-05-02T15:18:10;16.80;99.90
8736;DHT22;4404;49.308;12.178;2023-05-02T15:20:13;16.60;99.90
8736;DHT22;4404;49.308;12.178;2023-05-02T15:22:15;16.50;99.90
8736;DHT22;4404;49.308;12.178;2023-05-02T15:24:19;16.40;99.90
8736;DHT22;4404;49.308;12.178;2023-05-02T15:26:22;16.40;99.90
8736;DHT22;4404;49.308;12.178;2023-05-02T15:28:29;16.30;99.90
8736;DHT22;4404;49.308;12.178;2023-05-02T15:30:38;16.30;99.90
8736;DHT22;4404;49.308;12.178;2023-05-02T15:32:43;16.20;99.90
8736;DHT22;4404;49.308;12.178;2023-05-02T15:34:50;16.20;99.90
8736;DHT22;4404;49.308;12.178;2023-05-02T15:36:52;16.20;99.90
8736;DHT22;4404;49.308;12.178;2023-05-02T15:38:56;16.30;99.90
8736;DHT22;4404;49.308;12.178;2023-05-02T15:40:59;16.30;99.90
8736;DHT22;4404;49.308;12.178;2023-05-02T15:43:02;16.30;99.90
8736;DHT22;4404;49.308;12.178;2023-05-02T15:45:10;16.30;99.90
8736;DHT22;4404;49.308;12.178;2023-05-02T15:47:14;16.30;99.90
8736;DHT22;4404;49.308;12.178;2023-05-02T15:49:17;16.30;99.90
8736;DHT22;4404;49.308;12.178;2023-05-02T15:51:19;16.30;99.90
8736;DHT22;4404;49.308;12.178;2023-05-02T15:53:23;16.30;99.90
8736;DHT22;4404;49.308;12.178;2023-05-02T15:55:25;16.10;99.90
8736;DHT22;4404;49.308;12.178;2023-05-02T15:57:32;16.10;99.90
8736;DHT22;4404;49.308;12.178;2023-05-02T15:59:35;16.10;99.90
8736;DHT22;4404;49.308;12.178;2023-05-02T16:01:40;16.10;99.90
8736;DHT22;4404;49.308;12.178;2023-05-02T16:03:43;16.00;99.90
8736;DHT22;4404;49.308;12.178;2023-05-02T16:05:52;16.10;99.90
8736;DHT22;4404;49.308;12.178;2023-05-02T16:07:58;16.20;99.90
8736;DHT22;4404;49.308;12.178;2023-05-02T16:10:03;16.20;99.90
8736;DHT22;4404;49.308;12.178;2023-05-02T16:12:07;16.20;99.90
8736;DHT22;4404;49.308;12.178;2023-05-02T16:14:10;16.20;99.90
8736;DHT22;4404;49.308;12.178;2023-05-02T16:16:12;16.30;99.90
8736;DHT22;4404;49.308;12.178;2023-05-02T16:18:14;16.40;99.90
8736;DHT22;4404;49.308;12.178;2023-05-02T16:20:17;16.30;99.90
8736;DHT22;4404;49.308;12.178;2023-05-02T16:22:19;16.30;99.90
8736;DHT22;4404;49.308;12.178;2023-05-02T16:24:22;16.40;99.90
8736;DHT22;4404;49.308;12.178;2023-05-02T16:26:25;16.40;99.90
8736;DHT22;4404;49.308;12.178;2023-05-02T16:28:29;16.40;99.90
8736;DHT22;4404;49.308;12.178;2023-05-02T16:30:38;16.50;99.90
8736;DHT22;4404;49.308;12.178;2023-05-02T16:32:48;16.70;99.90
8736;DHT22;4404;49.308;12.178;2023-05-02T16:34:51;16.80;99.90
8736;DHT22;4404;49.308;12.178;2023-05-02T16:36:53;16.80;99.90
8736;DHT22;4404;49.308;12.178;2023-05-02T16:38:56;16.80;99.90
8736;DHT22;4404;49.308;12.178;2023-05-02T16:41:02;16.90;99.90
8736;DHT22;4404;49.308;12.178;2023-05-02T16:43:11;16.80;99.90
8736;DHT22;4404;49.308;12.178;2023-05-02T16:45:15;16.80;99.90
8736;DHT22;4404;49.308;12.178;2023-05-02T16:47:19;16.70;99.90
8736;DHT22;4404;49.308;12.178;2023-05-02T16:49:22;16.60;99.90
8736;DHT22;4404;49.308;12.178;2023-05-02T16:51:24;16.50;99.90
8736;DHT22;4404;49.308;12.178;2023-05-02T16:53:26;16.40;99.90
8736;DHT22;4404;49.308;12.178;2023-05-02T16:55:29;16.40;99.90
8736;DHT22;4404;49.308;12.178;2023-05-02T16:57:32;16.40;99.90
8736;DHT22;4404;49.308;12.178;2023-05-02T16:59:34;16.50;99.90
8736;DHT22;4404;49.308;12.178;2023-05-02T17:01:36;16.50;99.90
8736;DHT22;4404;49.308;12.178;2023-05-02T17:03:41;16.50;99.90
8736;DHT22;4404;49.308;12.178;2023-05-02T17:05:46;16.50;99.90
8736;DHT22;4404;49.308;12.178;2023-05-02T17:07:48;16.50;99.90
8736;DHT22;4404;49.308;12.178;2023-05-02T17:09:50;16.50;99.90
8736;DHT22;4404;49.308;12.178;2023-05-02T17:11:52;16.50;99.90
8736;DHT22;4404;49.308;12.178;2023-05-02T17:13:54;16.50;99.90
8736;DHT22;4404;49.308;12.178;2023-05-02T17:15:56;16.50;99.90
8736;DHT22;4404;49.308;12.178;2023-05-02T17:17:59;16.50;99.90
8736;DHT22;4404;49.308;12.178;2023-05-02T17:20:07;16.50;99.90
8736;DHT22;4404;49.308;12.178;2023-05-02T17:22:11;16.40;99.90
8736;DHT22;4404;49.308;12.178;2023-05-02T17:24:14;16.40;99.90
8736;DHT22;4404;49.308;12.178;2023-05-02T17:26:16;16.30;99.90
8736;DHT22;4404;49.308;12.178;2023-05-02T17:28:18;16.20;99.90
8736;DHT22;4404;49.308;12.178;2023-05-02T17:30:20;16.10;99.90
8736;DHT22;4404;49.308;12.178;2023-05-02T17:32:24;16.00;99.90
8736;DHT22;4404;49.308;12.178;2023-05-02T17:34:26;16.00;99.90
8736;DHT22;4404;49.308;12.178;2023-05-02T17:36:31;15.90;99.90
8736;DHT22;4404;49.308;12.178;2023-05-02T17:38:33;15.80;99.90
8736;DHT22;4404;49.308;12.178;2023-05-02T17:40:35;15.70;99.90
8736;DHT22;4404;49.308;12.178;2023-05-02T17:42:37;15.70;99.90
8736;DHT22;4404;49.308;12.178;2023-05-02T17:44:39;15.70;99.90
8736;DHT22;4404;49.308;12.178;2023-05-02T17:46:41;15.70;99.90
8736;DHT22;4404;49.308;12.178;2023-05-02T17:48:43;15.60;99.90
8736;DHT22;4404;49.308;12.178;2023-05-02T17:50:46;15.40;99.90
8736;DHT22;4404;49.308;12.178;2023-05-02T17:52:50;15.30;99.90
8736;DHT22;4404;49.308;12.178;2023-05-02T17:54:52;15.30;99.90
8736;DHT22;4404;49.308;12.178;2023-05-02T17:56:54;15.20;99.90
8736;DHT22;4404;49.308;12.178;2023-05-02T17:58:56;15.20;99.90
8736;DHT22;4404;49.308;12.178;2023-05-02T18:01:05;15.00;99.90
8736;DHT22;4404;49.308;12.178;2023-05-02T18:03:08;14.90;99.90
8736;DHT22;4404;49.308;12.178;2023-05-02T18:05:10;14.80;99.90
8736;DHT22;4404;49.308;12.178;2023-05-02T18:07:12;14.80;99.90
8736;DHT22;4404;49.308;12.178;2023-05-02T18:09:16;14.60;99.90
